createdAt,value
2022-07-27T00:01:55.296Z,19.57
2022-07-27T00:06:56.965Z,18.89
2022-07-27T00:11:58.609Z,19.10
2022-07-27T00:17:00.281Z,19.05
2022-07-27T00:22:01.953Z,18.61
2022-07-27T00:27:03.700Z,17.94
2022-07-27T00:32:10.838Z,17.56
2022-07-27T00:37:14.209Z,17.53
2022-07-27T00:42:15.897Z,17.62
2022-07-27T00:47:17.580Z,17.63
2022-07-27T00:52:21.518Z,17.54
2022-07-27T00:57:23.577Z,17.45
2022-07-27T01:02:26.459Z,17.45
2022-07-27T01:07:32.101Z,17.51
2022-07-27T01:12:33.809Z,17.53
2022-07-27T01:17:35.718Z,17.47
2022-07-27T01:22:37.432Z,17.42
2022-07-27T01:27:39.137Z,17.07
2022-07-27T01:32:40.793Z,17.65
2022-07-27T01:37:42.426Z,17.49
2022-07-27T01:42:50.032Z,17.56
2022-07-27T01:47:51.663Z,17.31
2022-07-27T01:52:53.317Z,17.42
2022-07-27T01:57:54.960Z,17.55
2022-07-27T02:02:56.609Z,17.60
2022-07-27T02:07:58.577Z,17.53
2022-07-27T02:13:00.445Z,17.36
2022-07-27T02:18:02.118Z,17.33
2022-07-27T02:23:03.855Z,17.43
2022-07-27T02:28:05.570Z,17.45
2022-07-27T02:33:08.987Z,17.33
2022-07-27T02:38:10.808Z,17.56
2022-07-27T02:43:13.167Z,17.50
2022-07-27T02:48:14.992Z,17.72
2022-07-27T02:53:16.698Z,17.76
2022-07-27T02:58:18.322Z,17.44
2022-07-27T03:03:19.977Z,17.59
2022-07-27T03:08:21.651Z,17.71
2022-07-27T03:13:23.381Z,17.58
2022-07-27T03:18:25.379Z,17.53
2022-07-27T03:23:27.068Z,17.68
2022-07-27T03:28:28.720Z,17.56
2022-07-27T03:33:30.408Z,17.68
2022-07-27T03:38:32.047Z,17.70
2022-07-27T03:43:34.648Z,17.31
2022-07-27T03:48:36.349Z,17.06
2022-07-27T03:53:38.024Z,17.19
2022-07-27T03:58:39.704Z,17.37
2022-07-27T04:03:44.407Z,17.24
2022-07-27T04:08:46.233Z,17.13
2022-07-27T04:13:50.625Z,17.68
2022-07-27T04:18:53.527Z,17.29
2022-07-27T04:23:55.167Z,17.08
2022-07-27T04:28:56.981Z,17.53
2022-07-27T04:33:58.670Z,17.17
2022-07-27T04:39:00.404Z,17.16
2022-07-27T04:44:02.090Z,17.40
2022-07-27T04:49:03.770Z,17.28
2022-07-27T04:54:05.555Z,17.17
2022-07-27T04:59:07.279Z,17.29
2022-07-27T05:04:09.064Z,17.15
2022-07-27T05:09:10.982Z,17.56
2022-07-27T05:14:12.902Z,17.79
2022-07-27T05:19:15.053Z,17.65
2022-07-27T05:24:17.029Z,17.39
2022-07-27T05:29:19.710Z,17.61
2022-07-27T05:34:21.367Z,17.61
2022-07-27T05:39:23.139Z,17.76
2022-07-27T05:44:24.817Z,17.79
2022-07-27T05:49:26.549Z,18.08
2022-07-27T05:54:28.237Z,18.70
2022-07-27T05:59:32.090Z,18.69
2022-07-27T06:04:33.750Z,18.67
2022-07-27T06:09:35.551Z,18.86
2022-07-27T06:14:37.781Z,18.43
2022-07-27T06:19:42.353Z,18.55
2022-07-27T06:24:44.000Z,18.98
2022-07-27T06:29:45.663Z,18.76
2022-07-27T06:34:47.392Z,18.70
2022-07-27T06:39:49.458Z,18.61
2022-07-27T06:44:51.103Z,18.30
2022-07-27T06:49:53.028Z,18.53
2022-07-27T06:54:54.759Z,18.95
2022-07-27T06:59:56.478Z,19.06
2022-07-27T07:04:59.144Z,18.94
2022-07-27T07:10:00.872Z,19.25
2022-07-27T07:15:02.640Z,19.39
2022-07-27T07:20:05.897Z,19.29
2022-07-27T07:25:07.987Z,19.44
2022-07-27T07:30:10.080Z,19.37
2022-07-27T07:35:11.844Z,19.04
2022-07-27T07:45:38.196Z,19.72
2022-07-27T07:50:51.817Z,20.07
2022-07-27T07:55:56.790Z,20.30
2022-07-27T08:00:58.566Z,19.54
2022-07-27T08:06:00.246Z,19.32
2022-07-27T08:11:03.413Z,19.44
2022-07-27T08:16:05.713Z,19.62
2022-07-27T08:21:07.712Z,19.44
2022-07-27T08:26:09.356Z,19.23
2022-07-27T08:31:14.201Z,19.62
2022-07-27T08:36:18.950Z,19.53
2022-07-27T08:41:25.098Z,20.02
2022-07-27T08:46:27.408Z,20.41
2022-07-27T08:51:30.085Z,20.76
2022-07-27T08:56:31.762Z,20.39
2022-07-27T09:01:35.993Z,20.75
2022-07-27T09:06:53.331Z,20.86
2022-07-27T09:12:08.142Z,20.59
2022-07-27T09:22:46.598Z,19.64
2022-07-27T09:27:49.817Z,19.88
2022-07-27T09:33:01.259Z,20.98
2022-07-27T09:38:24.336Z,20.86
2022-07-27T09:48:47.832Z,20.53
2022-07-27T09:53:49.985Z,21.15
2022-07-27T09:58:55.829Z,21.45
2022-07-27T10:04:00.528Z,23.30
2022-07-27T10:09:02.269Z,26.03
2022-07-27T10:14:04.130Z,22.98
2022-07-27T10:19:07.881Z,21.28
2022-07-27T10:24:13.817Z,22.51
2022-07-27T10:29:17.007Z,22.91
2022-07-27T10:39:43.313Z,22.68
2022-07-27T10:44:55.483Z,22.69
2022-07-27T10:50:12.177Z,23.10
2022-07-27T10:55:32.516Z,24.28
2022-07-27T11:00:54.077Z,23.59
2022-07-27T11:06:08.911Z,24.93
2022-07-27T11:11:23.844Z,24.64
2022-07-27T11:16:27.863Z,23.92
2022-07-27T11:21:32.985Z,24.40
2022-07-27T11:26:46.855Z,23.91
2022-07-27T11:31:55.942Z,24.98
2022-07-27T11:37:02.155Z,26.11
2022-07-27T11:42:08.878Z,25.71
2022-07-27T11:47:18.006Z,24.23
2022-07-27T11:52:19.724Z,23.42
2022-07-27T11:57:31.327Z,22.14
2022-07-27T12:02:33.045Z,22.75
2022-07-27T12:07:36.947Z,23.42
2022-07-27T12:12:38.586Z,21.88
2022-07-27T12:17:42.805Z,23.52
2022-07-27T12:22:52.527Z,25.69
2022-07-27T12:28:02.394Z,26.09
2022-07-27T12:33:07.117Z,28.61
2022-07-27T12:38:09.880Z,25.94
2022-07-27T12:43:16.516Z,24.89
2022-07-27T12:48:22.406Z,24.79
2022-07-27T12:53:24.071Z,24.18
2022-07-27T12:58:25.970Z,23.90
2022-07-27T13:03:27.724Z,25.94
2022-07-27T13:08:29.398Z,25.05
2022-07-27T13:13:31.056Z,25.38
2022-07-27T13:18:32.969Z,24.34
2022-07-27T13:23:34.767Z,25.57
2022-07-27T13:28:36.614Z,25.58
2022-07-27T13:33:38.278Z,28.13
2022-07-27T13:38:39.954Z,25.84
2022-07-27T13:43:41.615Z,24.27
2022-07-27T13:48:43.422Z,23.77
2022-07-27T13:53:45.169Z,24.32
2022-07-27T13:58:46.837Z,23.86
2022-07-27T14:03:48.540Z,23.27
2022-07-27T14:08:50.251Z,22.90
2022-07-27T14:13:52.223Z,22.92
2022-07-27T14:18:54.052Z,23.61
2022-07-27T14:23:55.695Z,23.25
2022-07-27T14:28:58.341Z,23.23
2022-07-27T14:34:00.020Z,22.83
2022-07-27T14:39:01.676Z,23.82
2022-07-27T14:44:03.672Z,23.23
2022-07-27T14:49:06.762Z,22.35
2022-07-27T14:54:08.842Z,22.33
2022-07-27T14:59:10.991Z,23.22
2022-07-27T15:04:12.894Z,23.25
2022-07-27T15:09:14.823Z,21.96
2022-07-27T15:14:17.101Z,22.90
2022-07-27T15:19:18.886Z,22.65
2022-07-27T15:24:20.525Z,22.31
2022-07-27T15:29:22.172Z,22.53
2022-07-27T15:34:23.839Z,22.42
2022-07-27T15:39:25.581Z,21.83
2022-07-27T15:44:27.256Z,22.14
2022-07-27T15:49:29.547Z,22.58
2022-07-27T15:54:34.549Z,22.14
2022-07-27T15:59:38.965Z,22.34
2022-07-27T16:04:40.939Z,21.95
2022-07-27T16:09:42.611Z,22.02
2022-07-27T16:14:44.379Z,22.22
2022-07-27T16:19:46.012Z,22.16
2022-07-27T16:24:47.680Z,22.36
2022-07-27T16:29:49.420Z,22.48
2022-07-27T16:34:51.044Z,22.20
2022-07-27T16:39:52.660Z,22.08
2022-07-27T16:44:54.295Z,22.29
2022-07-27T16:49:56.071Z,22.70
2022-07-27T16:54:57.798Z,22.50
2022-07-27T17:00:00.192Z,22.48
2022-07-27T17:05:06.735Z,22.48
2022-07-27T17:10:08.989Z,22.59
2022-07-27T17:15:10.816Z,22.32
2022-07-27T17:20:12.589Z,22.20
2022-07-27T17:25:14.368Z,22.10
2022-07-27T17:30:16.263Z,22.06
2022-07-27T17:35:18.019Z,21.89
2022-07-27T17:40:20.119Z,21.72
2022-07-27T17:45:24.019Z,21.68
2022-07-27T17:50:26.330Z,21.61
2022-07-27T17:55:28.590Z,21.55
2022-07-27T18:00:30.772Z,21.33
2022-07-27T18:05:33.091Z,21.23
2022-07-27T18:10:38.561Z,21.15
2022-07-27T18:15:50.766Z,21.06
2022-07-27T18:20:56.503Z,20.82
2022-07-27T18:25:58.239Z,20.73
2022-07-27T18:30:59.981Z,20.49
2022-07-27T18:36:01.760Z,20.37
2022-07-27T18:41:03.658Z,20.19
2022-07-27T18:46:05.441Z,20.06
2022-07-27T18:51:07.220Z,19.71
2022-07-27T18:56:08.854Z,19.56
2022-07-27T19:01:10.564Z,19.33
2022-07-27T19:06:12.610Z,19.03
2022-07-27T19:11:19.739Z,18.96
2022-07-27T19:16:21.828Z,18.55
2022-07-27T19:21:23.642Z,18.33
2022-07-27T19:26:25.341Z,17.96
2022-07-27T19:31:28.235Z,17.62
2022-07-27T19:36:30.041Z,17.44
2022-07-27T19:41:31.768Z,17.18
2022-07-27T19:46:33.790Z,17.12
2022-07-27T19:51:35.489Z,16.81
2022-07-27T19:56:37.973Z,16.81
2022-07-27T20:01:39.714Z,16.54
2022-07-27T20:06:41.563Z,16.47
2022-07-27T20:11:43.221Z,16.24
2022-07-27T20:16:45.734Z,16.17
2022-07-27T20:21:47.435Z,15.79
2022-07-27T20:26:49.484Z,15.66
2022-07-27T20:31:52.143Z,15.69
2022-07-27T20:36:57.288Z,15.31
2022-07-27T20:41:58.941Z,15.33
2022-07-27T20:47:00.586Z,15.30
2022-07-27T20:52:02.304Z,15.00
2022-07-27T20:57:04.795Z,15.15
2022-07-27T21:02:07.699Z,14.90
2022-07-27T21:07:09.527Z,14.80
2022-07-27T21:12:11.173Z,14.34
2022-07-27T21:17:13.461Z,14.64
2022-07-27T21:22:15.134Z,14.54
2022-07-27T21:27:19.723Z,14.34
2022-07-27T21:32:23.073Z,14.15
2022-07-27T21:37:24.731Z,14.14
2022-07-27T21:42:26.389Z,13.75
2022-07-27T21:47:28.046Z,13.88
2022-07-27T21:52:29.735Z,13.86
2022-07-27T21:57:31.364Z,13.75
2022-07-27T22:02:33.033Z,13.76
2022-07-27T22:07:34.734Z,13.86
2022-07-27T22:12:36.486Z,13.73
2022-07-27T22:17:46.233Z,13.57
2022-07-27T22:22:52.643Z,13.45
2022-07-27T22:27:54.280Z,13.42
2022-07-27T22:32:56.117Z,13.39
2022-07-27T22:37:57.793Z,13.25
2022-07-27T22:42:59.461Z,12.97
2022-07-27T22:48:01.165Z,12.99
2022-07-27T22:53:03.133Z,12.82
2022-07-27T22:58:04.829Z,12.80
2022-07-27T23:03:06.543Z,12.87
2022-07-27T23:08:08.405Z,12.76
2022-07-27T23:13:10.099Z,12.56
2022-07-27T23:18:12.758Z,12.51
2022-07-27T23:23:16.116Z,12.26
2022-07-27T23:28:18.640Z,12.10
2022-07-27T23:33:20.291Z,12.24
2022-07-27T23:38:22.107Z,12.09
2022-07-27T23:43:23.753Z,12.12
2022-07-27T23:48:25.566Z,12.07
2022-07-27T23:53:30.310Z,11.94
2022-07-27T23:58:31.945Z,11.78
